sensor_id;sensor_type;location;lat;lon;timestamp;temperature;humidity
33831;DHT22;20137;48.834;8.732;2023-03-02T00:00:35;-0.30;99.90
33831;DHT22;20137;48.834;8.732;2023-03-02T00:03:01;-0.30;99.90
33831;DHT22;20137;48.834;8.732;2023-03-02T00:05:28;-0.40;99.90
33831;DHT22;20137;48.834;8.732;2023-03-02T00:07:56;-0.40;99.90
33831;DHT22;20137;48.834;8.732;2023-03-02T00:10:22;-0.40;99.90
33831;DHT22;20137;48.834;8.732;2023-03-02T00:12:48;-0.50;99.90
33831;DHT22;20137;48.834;8.732;2023-03-02T00:15:14;-0.50;99.90
33831;DHT22;20137;48.834;8.732;2023-03-02T00:17:39;-0.60;99.90
33831;DHT22;20137;48.834;8.732;2023-03-02T00:20:05;-0.60;99.90
33831;DHT22;20137;48.834;8.732;2023-03-02T00:22:35;-0.50;99.90
33831;DHT22;20137;48.834;8.732;2023-03-02T00:25:01;-0.60;99.90
33831;DHT22;20137;48.834;8.732;2023-03-02T00:27:27;-0.60;99.90
33831;DHT22;20137;48.834;8.732;2023-03-02T00:29:55;-0.70;99.90
33831;DHT22;20137;48.834;8.732;2023-03-02T00:32:21;-0.70;99.90
33831;DHT22;20137;48.834;8.732;2023-03-02T00:34:47;-0.70;99.90
33831;DHT22;20137;48.834;8.732;2023-03-02T00:37:12;-0.70;99.90
33831;DHT22;20137;48.834;8.732;2023-03-02T00:39:38;-0.80;99.90
33831;DHT22;20137;48.834;8.732;2023-03-02T00:42:04;-0.80;99.90
33831;DHT22;20137;48.834;8.732;2023-03-02T00:44:30;-0.80;99.90
33831;DHT22;20137;48.834;8.732;2023-03-02T00:46:55;-0.90;99.90
33831;DHT22;20137;48.834;8.732;2023-03-02T00:49:21;-0.80;99.90
33831;DHT22;20137;48.834;8.732;2023-03-02T00:51:47;-0.80;99.90
33831;DHT22;20137;48.834;8.732;2023-03-02T00:54:12;-0.80;99.90
33831;DHT22;20137;48.834;8.732;2023-03-02T00:56:38;-0.90;99.90
33831;DHT22;20137;48.834;8.732;2023-03-02T00:59:09;-0.90;99.90
33831;DHT22;20137;48.834;8.732;2023-03-02T01:01:56;-0.90;99.90
33831;DHT22;20137;48.834;8.732;2023-03-02T01:04:31;-0.90;99.90
33831;DHT22;20137;48.834;8.732;2023-03-02T01:06:59;-0.90;99.90
33831;DHT22;20137;48.834;8.732;2023-03-02T01:09:25;-0.90;99.90
33831;DHT22;20137;48.834;8.732;2023-03-02T01:11:51;-1.00;99.90
33831;DHT22;20137;48.834;8.732;2023-03-02T01:14:17;-1.10;99.90
33831;DHT22;20137;48.834;8.732;2023-03-02T01:16:43;-1.10;99.90
33831;DHT22;20137;48.834;8.732;2023-03-02T01:19:08;-1.10;99.90
33831;DHT22;20137;48.834;8.732;2023-03-02T01:21:34;-0.90;99.90
33831;DHT22;20137;48.834;8.732;2023-03-02T01:24:00;-1.10;99.90
33831;DHT22;20137;48.834;8.732;2023-03-02T01:26:25;-1.00;99.90
33831;DHT22;20137;48.834;8.732;2023-03-02T01:28:51;-1.10;99.90
33831;DHT22;20137;48.834;8.732;2023-03-02T01:31:27;-1.10;99.90
33831;DHT22;20137;48.834;8.732;2023-03-02T01:33:53;-1.10;99.90
33831;DHT22;20137;48.834;8.732;2023-03-02T01:36:19;-1.10;99.90
33831;DHT22;20137;48.834;8.732;2023-03-02T01:38:45;-1.10;99.90
33831;DHT22;20137;48.834;8.732;2023-03-02T01:41:11;-1.10;99.90
33831;DHT22;20137;48.834;8.732;2023-03-02T01:43:38;-1.20;99.90
33831;DHT22;20137;48.834;8.732;2023-03-02T01:46:11;-1.20;99.90
33831;DHT22;20137;48.834;8.732;2023-03-02T01:48:45;-1.30;99.90
33831;DHT22;20137;48.834;8.732;2023-03-02T01:51:20;-1.20;99.90
33831;DHT22;20137;48.834;8.732;2023-03-02T01:53:47;-1.30;99.90
33831;DHT22;20137;48.834;8.732;2023-03-02T01:56:21;-1.30;99.90
33831;DHT22;20137;48.834;8.732;2023-03-02T01:58:51;-1.30;99.90
33831;DHT22;20137;48.834;8.732;2023-03-02T02:01:18;-1.30;99.90
33831;DHT22;20137;48.834;8.732;2023-03-02T02:03:47;-1.40;99.90
33831;DHT22;20137;48.834;8.732;2023-03-02T02:06:24;-1.40;99.90
33831;DHT22;20137;48.834;8.732;2023-03-02T02:08:51;-1.40;99.90
33831;DHT22;20137;48.834;8.732;2023-03-02T02:11:18;-1.40;99.90
33831;DHT22;20137;48.834;8.732;2023-03-02T02:13:44;-1.40;99.90
33831;DHT22;20137;48.834;8.732;2023-03-02T02:16:10;-1.40;99.90
33831;DHT22;20137;48.834;8.732;2023-03-02T02:18:38;-1.40;99.90
33831;DHT22;20137;48.834;8.732;2023-03-02T02:21:05;-1.40;99.90
33831;DHT22;20137;48.834;8.732;2023-03-02T02:26:44;-1.40;99.90
33831;DHT22;20137;48.834;8.732;2023-03-02T02:29:16;-1.40;99.90
33831;DHT22;20137;48.834;8.732;2023-03-02T02:31:54;-1.40;99.90
33831;DHT22;20137;48.834;8.732;2023-03-02T02:34:36;-1.40;99.90
33831;DHT22;20137;48.834;8.732;2023-03-02T02:39:50;-1.50;99.90
33831;DHT22;20137;48.834;8.732;2023-03-02T02:42:37;-1.50;99.90
33831;DHT22;20137;48.834;8.732;2023-03-02T02:45:13;-1.50;99.90
33831;DHT22;20137;48.834;8.732;2023-03-02T02:47:41;-1.60;99.90
33831;DHT22;20137;48.834;8.732;2023-03-02T02:50:18;-1.60;99.90
33831;DHT22;20137;48.834;8.732;2023-03-02T02:52:45;-1.60;99.90
33831;DHT22;20137;48.834;8.732;2023-03-02T02:55:19;-1.70;99.90
33831;DHT22;20137;48.834;8.732;2023-03-02T02:57:46;-1.80;99.90
33831;DHT22;20137;48.834;8.732;2023-03-02T03:00:18;-1.80;99.90
33831;DHT22;20137;48.834;8.732;2023-03-02T03:02:49;-1.80;99.90
33831;DHT22;20137;48.834;8.732;2023-03-02T03:05:16;-1.80;99.90
33831;DHT22;20137;48.834;8.732;2023-03-02T03:07:42;-1.90;99.90
33831;DHT22;20137;48.834;8.732;2023-03-02T03:10:14;-1.90;99.90
33831;DHT22;20137;48.834;8.732;2023-03-02T03:12:42;-1.90;99.90
33831;DHT22;20137;48.834;8.732;2023-03-02T03:15:09;-2.00;99.90
33831;DHT22;20137;48.834;8.732;2023-03-02T03:17:35;-2.00;99.90
33831;DHT22;20137;48.834;8.732;2023-03-02T03:20:02;-2.00;99.90
33831;DHT22;20137;48.834;8.732;2023-03-02T03:22:33;-2.00;99.90
33831;DHT22;20137;48.834;8.732;2023-03-02T03:24:59;-2.10;99.90
33831;DHT22;20137;48.834;8.732;2023-03-02T03:27:25;-2.00;99.90
33831;DHT22;20137;48.834;8.732;2023-03-02T03:29:51;-2.00;99.90
33831;DHT22;20137;48.834;8.732;2023-03-02T03:32:17;-2.00;99.90
33831;DHT22;20137;48.834;8.732;2023-03-02T03:34:43;-2.00;99.90
33831;DHT22;20137;48.834;8.732;2023-03-02T03:37:12;-2.00;99.90
33831;DHT22;20137;48.834;8.732;2023-03-02T03:39:38;-2.00;99.90
33831;DHT22;20137;48.834;8.732;2023-03-02T03:42:04;-2.10;99.90
33831;DHT22;20137;48.834;8.732;2023-03-02T03:44:30;-2.10;99.90
33831;DHT22;20137;48.834;8.732;2023-03-02T03:46:56;-2.10;99.90
33831;DHT22;20137;48.834;8.732;2023-03-02T03:49:22;-2.10;99.90
33831;DHT22;20137;48.834;8.732;2023-03-02T03:51:48;-2.10;99.90
33831;DHT22;20137;48.834;8.732;2023-03-02T03:54:13;-2.00;99.90
33831;DHT22;20137;48.834;8.732;2023-03-02T03:56:42;-2.00;99.90
33831;DHT22;20137;48.834;8.732;2023-03-02T03:59:11;-2.00;99.90
33831;DHT22;20137;48.834;8.732;2023-03-02T04:01:48;-2.00;99.90
33831;DHT22;20137;48.834;8.732;2023-03-02T04:04:18;-2.10;99.90
33831;DHT22;20137;48.834;8.732;2023-03-02T04:06:44;-2.10;99.90
33831;DHT22;20137;48.834;8.732;2023-03-02T04:09:10;-2.10;99.90
33831;DHT22;20137;48.834;8.732;2023-03-02T04:11:41;-2.10;99.90
33831;DHT22;20137;48.834;8.732;2023-03-02T04:14:08;-2.10;99.90
33831;DHT22;20137;48.834;8.732;2023-03-02T04:16:35;-2.10;99.90
33831;DHT22;20137;48.834;8.732;2023-03-02T04:19:02;-2.10;99.90
33831;DHT22;20137;48.834;8.732;2023-03-02T04:21:27;-2.10;99.90
33831;DHT22;20137;48.834;8.732;2023-03-02T04:23:53;-2.20;99.90
33831;DHT22;20137;48.834;8.732;2023-03-02T04:26:20;-2.10;99.90
33831;DHT22;20137;48.834;8.732;2023-03-02T04:28:46;-2.10;99.90
33831;DHT22;20137;48.834;8.732;2023-03-02T04:31:15;-2.10;99.90
33831;DHT22;20137;48.834;8.732;2023-03-02T04:33:41;-2.20;99.90
33831;DHT22;20137;48.834;8.732;2023-03-02T04:36:07;-2.20;99.90
33831;DHT22;20137;48.834;8.732;2023-03-02T04:38:32;-2.20;99.90
33831;DHT22;20137;48.834;8.732;2023-03-02T04:40:58;-2.30;99.90
33831;DHT22;20137;48.834;8.732;2023-03-02T04:43:24;-2.30;99.90
33831;DHT22;20137;48.834;8.732;2023-03-02T04:45:52;-2.30;99.90
33831;DHT22;20137;48.834;8.732;2023-03-02T04:48:18;-2.30;99.90
33831;DHT22;20137;48.834;8.732;2023-03-02T04:50:44;-2.30;99.90
33831;DHT22;20137;48.834;8.732;2023-03-02T04:53:09;-2.30;99.90
33831;DHT22;20137;48.834;8.732;2023-03-02T04:55:36;-2.30;99.90
33831;DHT22;20137;48.834;8.732;2023-03-02T04:58:02;-2.40;99.90
33831;DHT22;20137;48.834;8.732;2023-03-02T05:00:28;-2.40;99.90
33831;DHT22;20137;48.834;8.732;2023-03-02T05:02:54;-2.40;99.90
33831;DHT22;20137;48.834;8.732;2023-03-02T05:05:23;-2.40;99.90
33831;DHT22;20137;48.834;8.732;2023-03-02T05:07:50;-2.40;99.90
33831;DHT22;20137;48.834;8.732;2023-03-02T05:10:17;-2.40;99.90
33831;DHT22;20137;48.834;8.732;2023-03-02T05:12:43;-2.30;99.90
33831;DHT22;20137;48.834;8.732;2023-03-02T05:15:36;-2.30;99.90
33831;DHT22;20137;48.834;8.732;2023-03-02T05:18:03;-2.30;99.90
33831;DHT22;20137;48.834;8.732;2023-03-02T05:20:29;-2.30;99.90
33831;DHT22;20137;48.834;8.732;2023-03-02T05:23:01;-2.30;99.90
33831;DHT22;20137;48.834;8.732;2023-03-02T05:25:30;-2.20;99.90
33831;DHT22;20137;48.834;8.732;2023-03-02T05:27:56;-2.20;99.90
33831;DHT22;20137;48.834;8.732;2023-03-02T05:30:23;-2.20;99.90
33831;DHT22;20137;48.834;8.732;2023-03-02T05:32:49;-2.30;99.90
33831;DHT22;20137;48.834;8.732;2023-03-02T05:35:16;-2.30;99.90
33831;DHT22;20137;48.834;8.732;2023-03-02T05:37:42;-2.40;99.90
33831;DHT22;20137;48.834;8.732;2023-03-02T05:40:11;-2.40;99.90
33831;DHT22;20137;48.834;8.732;2023-03-02T05:42:37;-2.40;99.90
33831;DHT22;20137;48.834;8.732;2023-03-02T05:45:04;-2.40;99.90
33831;DHT22;20137;48.834;8.732;2023-03-02T05:47:30;-2.50;99.90
33831;DHT22;20137;48.834;8.732;2023-03-02T05:49:56;-2.50;99.90
33831;DHT22;20137;48.834;8.732;2023-03-02T05:52:21;-2.50;99.90
33831;DHT22;20137;48.834;8.732;2023-03-02T05:54:47;-2.60;99.90
33831;DHT22;20137;48.834;8.732;2023-03-02T05:57:13;-2.60;99.90
33831;DHT22;20137;48.834;8.732;2023-03-02T05:59:38;-2.60;99.90
33831;DHT22;20137;48.834;8.732;2023-03-02T06:02:04;-2.60;99.90
33831;DHT22;20137;48.834;8.732;2023-03-02T06:04:30;-2.60;99.90
33831;DHT22;20137;48.834;8.732;2023-03-02T06:06:55;-2.60;99.90
33831;DHT22;20137;48.834;8.732;2023-03-02T06:09:21;-2.60;99.90
33831;DHT22;20137;48.834;8.732;2023-03-02T06:11:47;-2.50;99.90
33831;DHT22;20137;48.834;8.732;2023-03-02T06:14:13;-2.50;99.90
33831;DHT22;20137;48.834;8.732;2023-03-02T06:16:39;-2.40;99.90
33831;DHT22;20137;48.834;8.732;2023-03-02T06:19:05;-2.20;99.90
33831;DHT22;20137;48.834;8.732;2023-03-02T06:21:31;-2.20;99.90
33831;DHT22;20137;48.834;8.732;2023-03-02T06:23:56;-2.10;99.90
33831;DHT22;20137;48.834;8.732;2023-03-02T06:26:22;-2.00;99.90
33831;DHT22;20137;48.834;8.732;2023-03-02T06:28:48;-1.80;99.90
33831;DHT22;20137;48.834;8.732;2023-03-02T06:31:13;-1.70;99.90
33831;DHT22;20137;48.834;8.732;2023-03-02T06:33:39;-1.50;99.90
33831;DHT22;20137;48.834;8.732;2023-03-02T06:36:05;-1.50;99.90
33831;DHT22;20137;48.834;8.732;2023-03-02T06:38:30;-1.40;99.90
33831;DHT22;20137;48.834;8.732;2023-03-02T06:40:56;-1.40;99.90
33831;DHT22;20137;48.834;8.732;2023-03-02T06:43:21;-1.30;99.90
33831;DHT22;20137;48.834;8.732;2023-03-02T06:45:47;-1.20;99.90
33831;DHT22;20137;48.834;8.732;2023-03-02T06:48:15;-1.10;99.90
33831;DHT22;20137;48.834;8.732;2023-03-02T06:50:40;-1.00;99.90
33831;DHT22;20137;48.834;8.732;2023-03-02T06:53:06;-1.00;99.90
33831;DHT22;20137;48.834;8.732;2023-03-02T06:55:32;-0.90;99.90
33831;DHT22;20137;48.834;8.732;2023-03-02T06:57:57;-0.90;99.90
33831;DHT22;20137;48.834;8.732;2023-03-02T07:00:23;-0.80;99.90
33831;DHT22;20137;48.834;8.732;2023-03-02T07:02:52;-0.70;99.90
33831;DHT22;20137;48.834;8.732;2023-03-02T07:05:18;-0.60;99.90
33831;DHT22;20137;48.834;8.732;2023-03-02T07:07:44;-0.60;99.90
33831;DHT22;20137;48.834;8.732;2023-03-02T07:10:10;-0.50;99.90
33831;DHT22;20137;48.834;8.732;2023-03-02T07:12:38;-0.50;99.90
33831;DHT22;20137;48.834;8.732;2023-03-02T07:15:04;-0.40;99.90
33831;DHT22;20137;48.834;8.732;2023-03-02T07:17:35;-0.30;99.90
33831;DHT22;20137;48.834;8.732;2023-03-02T07:20:04;-0.20;99.90
33831;DHT22;20137;48.834;8.732;2023-03-02T07:22:31;-0.30;99.90
33831;DHT22;20137;48.834;8.732;2023-03-02T07:24:56;-0.30;99.90
33831;DHT22;20137;48.834;8.732;2023-03-02T07:27:22;-0.30;99.90
33831;DHT22;20137;48.834;8.732;2023-03-02T07:29:48;-0.10;99.90
33831;DHT22;20137;48.834;8.732;2023-03-02T07:32:13;-0.10;99.90
33831;DHT22;20137;48.834;8.732;2023-03-02T07:34:39;0.00;99.90
33831;DHT22;20137;48.834;8.732;2023-03-02T07:37:05;0.10;99.90
33831;DHT22;20137;48.834;8.732;2023-03-02T07:39:30;0.30;99.90
33831;DHT22;20137;48.834;8.732;2023-03-02T07:41:58;0.30;99.90
33831;DHT22;20137;48.834;8.732;2023-03-02T07:44:25;0.40;99.90
33831;DHT22;20137;48.834;8.732;2023-03-02T07:46:51;0.30;99.90
33831;DHT22;20137;48.834;8.732;2023-03-02T07:49:16;0.40;99.90
33831;DHT22;20137;48.834;8.732;2023-03-02T07:51:42;0.40;99.90
33831;DHT22;20137;48.834;8.732;2023-03-02T07:54:08;0.50;99.90
33831;DHT22;20137;48.834;8.732;2023-03-02T07:56:34;0.50;99.90
33831;DHT22;20137;48.834;8.732;2023-03-02T07:58:59;0.60;99.90
33831;DHT22;20137;48.834;8.732;2023-03-02T08:01:25;0.70;99.90
33831;DHT22;20137;48.834;8.732;2023-03-02T08:03:51;0.80;99.90
33831;DHT22;20137;48.834;8.732;2023-03-02T08:06:16;0.80;99.90
33831;DHT22;20137;48.834;8.732;2023-03-02T08:08:42;0.90;99.90
33831;DHT22;20137;48.834;8.732;2023-03-02T08:11:12;1.00;99.90
33831;DHT22;20137;48.834;8.732;2023-03-02T08:13:38;1.10;99.90
33831;DHT22;20137;48.834;8.732;2023-03-02T08:16:05;1.20;99.90
33831;DHT22;20137;48.834;8.732;2023-03-02T08:18:32;1.30;99.90
33831;DHT22;20137;48.834;8.732;2023-03-02T08:20:58;1.30;99.90
33831;DHT22;20137;48.834;8.732;2023-03-02T08:23:24;1.30;99.90
33831;DHT22;20137;48.834;8.732;2023-03-02T08:25:51;1.40;99.90
33831;DHT22;20137;48.834;8.732;2023-03-02T08:28:17;1.50;99.90
33831;DHT22;20137;48.834;8.732;2023-03-02T08:30:43;1.60;99.90
33831;DHT22;20137;48.834;8.732;2023-03-02T08:33:09;1.60;99.90
33831;DHT22;20137;48.834;8.732;2023-03-02T08:35:34;1.60;99.90
33831;DHT22;20137;48.834;8.732;2023-03-02T08:38:00;1.70;99.90
33831;DHT22;20137;48.834;8.732;2023-03-02T08:40:26;1.60;99.90
33831;DHT22;20137;48.834;8.732;2023-03-02T08:42:51;1.70;99.90
33831;DHT22;20137;48.834;8.732;2023-03-02T08:45:23;2.00;99.90
33831;DHT22;20137;48.834;8.732;2023-03-02T08:47:48;2.00;99.90
33831;DHT22;20137;48.834;8.732;2023-03-02T08:50:14;2.10;99.90
33831;DHT22;20137;48.834;8.732;2023-03-02T08:52:40;2.20;99.90
33831;DHT22;20137;48.834;8.732;2023-03-02T08:55:06;2.30;99.90
33831;DHT22;20137;48.834;8.732;2023-03-02T08:57:32;2.30;99.90
33831;DHT22;20137;48.834;8.732;2023-03-02T08:59:59;2.40;99.90
33831;DHT22;20137;48.834;8.732;2023-03-02T09:02:25;2.30;99.90
33831;DHT22;20137;48.834;8.732;2023-03-02T09:04:50;2.30;99.90
33831;DHT22;20137;48.834;8.732;2023-03-02T09:07:16;2.40;99.90
33831;DHT22;20137;48.834;8.732;2023-03-02T09:09:42;2.50;99.90
33831;DHT22;20137;48.834;8.732;2023-03-02T09:12:08;2.60;99.90
33831;DHT22;20137;48.834;8.732;2023-03-02T09:14:34;2.50;99.90
33831;DHT22;20137;48.834;8.732;2023-03-02T09:17:00;2.70;99.90
33831;DHT22;20137;48.834;8.732;2023-03-02T09:19:25;2.70;99.90
33831;DHT22;20137;48.834;8.732;2023-03-02T09:21:51;2.80;99.90
33831;DHT22;20137;48.834;8.732;2023-03-02T09:24:17;2.90;99.90
33831;DHT22;20137;48.834;8.732;2023-03-02T09:26:43;2.90;99.90
33831;DHT22;20137;48.834;8.732;2023-03-02T09:29:08;3.00;99.90
33831;DHT22;20137;48.834;8.732;2023-03-02T09:31:35;2.90;99.90
33831;DHT22;20137;48.834;8.732;2023-03-02T09:34:01;3.00;99.90
33831;DHT22;20137;48.834;8.732;2023-03-02T09:36:27;3.10;99.90
33831;DHT22;20137;48.834;8.732;2023-03-02T09:38:52;3.30;99.90
33831;DHT22;20137;48.834;8.732;2023-03-02T09:44:01;3.60;99.90
33831;DHT22;20137;48.834;8.732;2023-03-02T09:46:45;3.60;99.90
33831;DHT22;20137;48.834;8.732;2023-03-02T09:52:32;3.80;99.90
33831;DHT22;20137;48.834;8.732;2023-03-02T09:55:11;4.00;99.90
33831;DHT22;20137;48.834;8.732;2023-03-02T09:57:38;4.10;99.90
33831;DHT22;20137;48.834;8.732;2023-03-02T10:02:49;4.40;99.90
33831;DHT22;20137;48.834;8.732;2023-03-02T10:05:25;4.40;99.90
33831;DHT22;20137;48.834;8.732;2023-03-02T10:07:52;4.30;99.90
33831;DHT22;20137;48.834;8.732;2023-03-02T10:10:28;4.30;99.90
33831;DHT22;20137;48.834;8.732;2023-03-02T10:13:28;4.40;99.90
33831;DHT22;20137;48.834;8.732;2023-03-02T10:21:48;4.40;99.90
33831;DHT22;20137;48.834;8.732;2023-03-02T10:27:29;4.50;99.90
33831;DHT22;20137;48.834;8.732;2023-03-02T10:30:07;4.30;99.90
33831;DHT22;20137;48.834;8.732;2023-03-02T10:32:44;4.30;99.90
33831;DHT22;20137;48.834;8.732;2023-03-02T10:35:26;4.50;99.90
33831;DHT22;20137;48.834;8.732;2023-03-02T10:38:15;4.50;99.90
33831;DHT22;20137;48.834;8.732;2023-03-02T10:40:45;4.50;99.90
33831;DHT22;20137;48.834;8.732;2023-03-02T10:43:28;4.60;99.90
33831;DHT22;20137;48.834;8.732;2023-03-02T10:46:03;4.70;99.90
33831;DHT22;20137;48.834;8.732;2023-03-02T10:48:32;4.80;99.90
33831;DHT22;20137;48.834;8.732;2023-03-02T10:51:03;4.80;99.90
33831;DHT22;20137;48.834;8.732;2023-03-02T10:53:29;4.70;99.90
33831;DHT22;20137;48.834;8.732;2023-03-02T10:55:54;4.80;99.90
33831;DHT22;20137;48.834;8.732;2023-03-02T10:58:29;5.00;99.90
33831;DHT22;20137;48.834;8.732;2023-03-02T11:01:05;4.90;99.90
33831;DHT22;20137;48.834;8.732;2023-03-02T11:03:39;4.90;99.90
33831;DHT22;20137;48.834;8.732;2023-03-02T11:06:31;5.10;99.90
33831;DHT22;20137;48.834;8.732;2023-03-02T11:09:07;5.30;99.90
33831;DHT22;20137;48.834;8.732;2023-03-02T11:11:32;4.80;99.90
33831;DHT22;20137;48.834;8.732;2023-03-02T11:14:15;5.10;99.90
33831;DHT22;20137;48.834;8.732;2023-03-02T11:16:41;5.20;99.90
33831;DHT22;20137;48.834;8.732;2023-03-02T11:19:30;5.00;99.90
33831;DHT22;20137;48.834;8.732;2023-03-02T11:22:09;5.00;99.90
33831;DHT22;20137;48.834;8.732;2023-03-02T11:24:47;5.10;99.90
33831;DHT22;20137;48.834;8.732;2023-03-02T11:27:19;5.40;99.90
33831;DHT22;20137;48.834;8.732;2023-03-02T11:29:53;5.40;99.90
33831;DHT22;20137;48.834;8.732;2023-03-02T11:32:32;5.50;99.90
33831;DHT22;20137;48.834;8.732;2023-03-02T11:35:28;5.60;99.90
33831;DHT22;20137;48.834;8.732;2023-03-02T11:37:58;5.20;99.90
33831;DHT22;20137;48.834;8.732;2023-03-02T11:40:59;5.30;99.90
33831;DHT22;20137;48.834;8.732;2023-03-02T11:43:27;5.60;99.90
33831;DHT22;20137;48.834;8.732;2023-03-02T11:46:03;5.40;99.90
33831;DHT22;20137;48.834;8.732;2023-03-02T11:48:37;5.40;99.90
33831;DHT22;20137;48.834;8.732;2023-03-02T11:51:22;5.60;99.90
33831;DHT22;20137;48.834;8.732;2023-03-02T11:54:00;5.90;99.90
33831;DHT22;20137;48.834;8.732;2023-03-02T11:56:32;6.20;99.90
33831;DHT22;20137;48.834;8.732;2023-03-02T11:59:02;6.20;99.90
33831;DHT22;20137;48.834;8.732;2023-03-02T12:01:34;6.30;99.90
33831;DHT22;20137;48.834;8.732;2023-03-02T12:04:09;6.30;99.90
33831;DHT22;20137;48.834;8.732;2023-03-02T12:06:38;6.30;99.90
33831;DHT22;20137;48.834;8.732;2023-03-02T12:09:32;6.30;99.90
33831;DHT22;20137;48.834;8.732;2023-03-02T12:12:18;6.30;99.90
33831;DHT22;20137;48.834;8.732;2023-03-02T12:14:47;6.40;99.90
33831;DHT22;20137;48.834;8.732;2023-03-02T12:17:20;6.40;99.90
33831;DHT22;20137;48.834;8.732;2023-03-02T12:19:48;6.40;99.90
33831;DHT22;20137;48.834;8.732;2023-03-02T12:22:26;6.40;99.90
33831;DHT22;20137;48.834;8.732;2023-03-02T12:25:00;6.40;99.90
33831;DHT22;20137;48.834;8.732;2023-03-02T12:27:34;6.30;99.90
33831;DHT22;20137;48.834;8.732;2023-03-02T12:32:44;6.10;99.90
33831;DHT22;20137;48.834;8.732;2023-03-02T12:35:11;6.10;99.90
33831;DHT22;20137;48.834;8.732;2023-03-02T12:37:52;6.10;99.90
33831;DHT22;20137;48.834;8.732;2023-03-02T12:40:38;6.20;99.90
33831;DHT22;20137;48.834;8.732;2023-03-02T12:46:31;6.30;99.90
33831;DHT22;20137;48.834;8.732;2023-03-02T12:52:03;6.40;99.90
33831;DHT22;20137;48.834;8.732;2023-03-02T12:54:42;6.30;99.90
33831;DHT22;20137;48.834;8.732;2023-03-02T12:57:16;6.20;99.90
33831;DHT22;20137;48.834;8.732;2023-03-02T12:59:50;6.20;99.90
33831;DHT22;20137;48.834;8.732;2023-03-02T13:02:22;6.10;99.90
33831;DHT22;20137;48.834;8.732;2023-03-02T13:05:00;6.20;99.90
33831;DHT22;20137;48.834;8.732;2023-03-02T13:07:33;6.10;99.90
33831;DHT22;20137;48.834;8.732;2023-03-02T13:10:04;6.00;99.90
33831;DHT22;20137;48.834;8.732;2023-03-02T13:12:32;6.00;99.90
33831;DHT22;20137;48.834;8.732;2023-03-02T13:14:58;6.00;99.90
33831;DHT22;20137;48.834;8.732;2023-03-02T13:17:30;5.90;99.90
33831;DHT22;20137;48.834;8.732;2023-03-02T13:20:00;5.80;99.90
33831;DHT22;20137;48.834;8.732;2023-03-02T13:22:26;5.90;99.90
33831;DHT22;20137;48.834;8.732;2023-03-02T13:24:57;6.00;99.90
33831;DHT22;20137;48.834;8.732;2023-03-02T13:27:25;6.30;99.90
33831;DHT22;20137;48.834;8.732;2023-03-02T13:29:52;6.40;99.90
33831;DHT22;20137;48.834;8.732;2023-03-02T13:34:52;6.40;99.90
33831;DHT22;20137;48.834;8.732;2023-03-02T13:37:36;6.50;99.90
33831;DHT22;20137;48.834;8.732;2023-03-02T13:40:30;6.50;99.90
33831;DHT22;20137;48.834;8.732;2023-03-02T13:42:55;6.60;99.90
33831;DHT22;20137;48.834;8.732;2023-03-02T13:45:24;6.60;99.90
33831;DHT22;20137;48.834;8.732;2023-03-02T13:47:51;6.60;99.90
33831;DHT22;20137;48.834;8.732;2023-03-02T13:50:26;6.60;99.90
33831;DHT22;20137;48.834;8.732;2023-03-02T13:52:56;6.70;99.90
33831;DHT22;20137;48.834;8.732;2023-03-02T13:55:23;6.80;99.90
33831;DHT22;20137;48.834;8.732;2023-03-02T13:57:50;6.90;99.90
33831;DHT22;20137;48.834;8.732;2023-03-02T14:00:34;7.00;99.90
33831;DHT22;20137;48.834;8.732;2023-03-02T14:03:01;6.90;99.90
33831;DHT22;20137;48.834;8.732;2023-03-02T14:05:27;6.90;99.90
33831;DHT22;20137;48.834;8.732;2023-03-02T14:07:58;7.00;99.90
33831;DHT22;20137;48.834;8.732;2023-03-02T14:10:24;7.10;99.90
33831;DHT22;20137;48.834;8.732;2023-03-02T14:13:03;7.10;99.90
33831;DHT22;20137;48.834;8.732;2023-03-02T14:15:31;7.20;99.90
33831;DHT22;20137;48.834;8.732;2023-03-02T14:17:57;7.10;99.90
33831;DHT22;20137;48.834;8.732;2023-03-02T14:20:22;7.10;99.90
33831;DHT22;20137;48.834;8.732;2023-03-02T14:22:48;7.10;99.90
33831;DHT22;20137;48.834;8.732;2023-03-02T14:25:15;7.00;99.90
33831;DHT22;20137;48.834;8.732;2023-03-02T14:27:42;7.10;99.90
33831;DHT22;20137;48.834;8.732;2023-03-02T14:30:18;7.20;99.90
33831;DHT22;20137;48.834;8.732;2023-03-02T14:32:44;7.30;99.90
33831;DHT22;20137;48.834;8.732;2023-03-02T14:35:11;7.40;99.90
33831;DHT22;20137;48.834;8.732;2023-03-02T14:37:43;7.30;99.90
33831;DHT22;20137;48.834;8.732;2023-03-02T14:40:19;7.30;99.90
33831;DHT22;20137;48.834;8.732;2023-03-02T14:42:46;7.20;99.90
33831;DHT22;20137;48.834;8.732;2023-03-02T14:45:12;7.40;99.90
33831;DHT22;20137;48.834;8.732;2023-03-02T14:47:38;7.40;99.90
33831;DHT22;20137;48.834;8.732;2023-03-02T14:50:04;7.50;99.90
33831;DHT22;20137;48.834;8.732;2023-03-02T14:52:39;7.50;99.90
33831;DHT22;20137;48.834;8.732;2023-03-02T14:55:27;7.40;99.90
33831;DHT22;20137;48.834;8.732;2023-03-02T14:57:58;7.50;99.90
33831;DHT22;20137;48.834;8.732;2023-03-02T15:00:25;7.40;99.90
33831;DHT22;20137;48.834;8.732;2023-03-02T15:02:51;7.50;99.90
33831;DHT22;20137;48.834;8.732;2023-03-02T15:05:17;7.60;99.90
33831;DHT22;20137;48.834;8.732;2023-03-02T15:07:43;7.50;99.90
33831;DHT22;20137;48.834;8.732;2023-03-02T15:10:18;7.50;99.90
33831;DHT22;20137;48.834;8.732;2023-03-02T15:12:44;7.60;99.90
33831;DHT22;20137;48.834;8.732;2023-03-02T15:15:10;7.50;99.90
33831;DHT22;20137;48.834;8.732;2023-03-02T15:17:36;7.40;99.90
33831;DHT22;20137;48.834;8.732;2023-03-02T15:20:02;7.50;99.90
33831;DHT22;20137;48.834;8.732;2023-03-02T15:22:28;7.50;99.90
33831;DHT22;20137;48.834;8.732;2023-03-02T15:24:54;7.50;99.90
33831;DHT22;20137;48.834;8.732;2023-03-02T15:27:19;7.40;99.90
33831;DHT22;20137;48.834;8.732;2023-03-02T15:29:47;7.50;99.90
33831;DHT22;20137;48.834;8.732;2023-03-02T15:32:13;7.50;99.90
33831;DHT22;20137;48.834;8.732;2023-03-02T15:34:39;7.50;99.90
33831;DHT22;20137;48.834;8.732;2023-03-02T15:37:04;7.50;99.90
33831;DHT22;20137;48.834;8.732;2023-03-02T15:39:30;7.40;99.90
33831;DHT22;20137;48.834;8.732;2023-03-02T15:41:58;7.40;99.90
33831;DHT22;20137;48.834;8.732;2023-03-02T15:44:24;7.50;99.90
33831;DHT22;20137;48.834;8.732;2023-03-02T15:46:55;7.40;99.90
33831;DHT22;20137;48.834;8.732;2023-03-02T15:49:21;7.30;99.90
33831;DHT22;20137;48.834;8.732;2023-03-02T15:51:52;7.20;99.90
33831;DHT22;20137;48.834;8.732;2023-03-02T15:54:20;7.20;99.90
33831;DHT22;20137;48.834;8.732;2023-03-02T15:56:46;7.20;99.90
33831;DHT22;20137;48.834;8.732;2023-03-02T15:59:23;7.10;99.90
33831;DHT22;20137;48.834;8.732;2023-03-02T16:01:49;7.10;99.90
33831;DHT22;20137;48.834;8.732;2023-03-02T16:04:15;7.10;99.90
33831;DHT22;20137;48.834;8.732;2023-03-02T16:06:41;7.10;99.90
33831;DHT22;20137;48.834;8.732;2023-03-02T16:09:06;7.10;99.90
33831;DHT22;20137;48.834;8.732;2023-03-02T16:11:32;6.90;99.90
33831;DHT22;20137;48.834;8.732;2023-03-02T16:13:57;6.90;99.90
33831;DHT22;20137;48.834;8.732;2023-03-02T16:16:23;7.00;99.90
33831;DHT22;20137;48.834;8.732;2023-03-02T16:18:56;6.90;99.90
33831;DHT22;20137;48.834;8.732;2023-03-02T16:21:23;6.80;99.90
33831;DHT22;20137;48.834;8.732;2023-03-02T16:23:49;6.80;99.90
33831;DHT22;20137;48.834;8.732;2023-03-02T16:26:18;6.60;99.90